createdAt,value
2017-03-17T00:00:50.053Z,0
2017-03-17T00:02:01.029Z,0
2017-03-17T00:03:12.280Z,0
2017-03-17T00:04:23.303Z,0
2017-03-17T00:05:34.495Z,0
2017-03-17T00:06:45.482Z,0
2017-03-17T00:07:56.470Z,0
2017-03-17T00:09:07.451Z,0
2017-03-17T00:10:18.452Z,0
2017-03-17T00:11:29.436Z,0
2017-03-17T00:12:40.430Z,0
2017-03-17T00:13:51.660Z,0
2017-03-17T00:15:02.646Z,0
2017-03-17T00:16:13.641Z,0
2017-03-17T00:17:24.626Z,0
2017-03-17T00:18:35.620Z,0
2017-03-17T00:19:46.603Z,0
2017-03-17T00:20:57.579Z,0
2017-03-17T00:22:08.557Z,0
2017-03-17T00:23:19.540Z,0
2017-03-17T00:24:30.578Z,0
2017-03-17T00:25:41.768Z,0
2017-03-17T00:26:52.959Z,0
2017-03-17T00:28:04.152Z,0
2017-03-17T00:29:15.132Z,0
2017-03-17T00:30:26.118Z,0
2017-03-17T00:31:37.100Z,0
2017-03-17T00:32:48.093Z,0
2017-03-17T00:33:59.269Z,0
2017-03-17T00:35:10.299Z,0
2017-03-17T00:36:21.489Z,0
2017-03-17T00:37:32.675Z,0
2017-03-17T00:38:43.670Z,0
2017-03-17T00:39:54.673Z,0
2017-03-17T00:41:05.667Z,0
2017-03-17T00:42:16.663Z,0
2017-03-17T00:43:27.653Z,0
2017-03-17T00:44:38.839Z,0
2017-03-17T00:45:49.912Z,0
2017-03-17T00:47:00.908Z,0
2017-03-17T00:48:11.892Z,0
2017-03-17T00:49:22.875Z,0
2017-03-17T00:50:33.856Z,0
2017-03-17T00:51:44.845Z,0
2017-03-17T00:52:55.832Z,0
2017-03-17T00:54:06.812Z,0
2017-03-17T00:55:17.795Z,0
2017-03-17T00:56:28.840Z,0
2017-03-17T00:57:39.831Z,0
2017-03-17T00:58:50.825Z,0
2017-03-17T01:00:01.806Z,0
2017-03-17T01:01:12.798Z,0
2017-03-17T01:02:23.809Z,0
2017-03-17T01:03:35.004Z,0
2017-03-17T01:04:45.994Z,0
2017-03-17T01:05:56.982Z,0
2017-03-17T01:07:08.222Z,0
2017-03-17T01:08:19.203Z,0
2017-03-17T01:09:30.213Z,0
2017-03-17T01:10:41.201Z,0
2017-03-17T01:11:52.385Z,0
2017-03-17T01:13:03.371Z,0
2017-03-17T01:14:14.356Z,0
2017-03-17T01:15:25.551Z,0
2017-03-17T01:16:36.547Z,0
2017-03-17T01:17:47.553Z,0
2017-03-17T01:18:58.538Z,0
2017-03-17T01:20:09.530Z,0
2017-03-17T01:21:20.518Z,0
2017-03-17T01:22:31.511Z,0
2017-03-17T01:23:42.956Z,0
2017-03-17T01:24:54.346Z,0
2017-03-17T01:26:05.330Z,0
2017-03-17T01:27:16.318Z,0
2017-03-17T01:28:27.350Z,0
2017-03-17T01:29:38.342Z,0
2017-03-17T01:30:49.328Z,0
2017-03-17T01:32:00.309Z,0
2017-03-17T01:33:11.304Z,0
2017-03-17T01:34:22.350Z,0
2017-03-17T01:35:33.546Z,0
2017-03-17T01:36:44.745Z,0
2017-03-17T01:37:55.761Z,0
2017-03-17T01:39:06.743Z,0
2017-03-17T01:40:17.728Z,0
2017-03-17T01:41:29.123Z,0
2017-03-17T01:42:40.117Z,0
2017-03-17T01:43:51.108Z,0
2017-03-17T01:45:02.349Z,0
2017-03-17T01:46:13.337Z,0
2017-03-17T01:47:24.523Z,0
2017-03-17T01:48:35.513Z,0
2017-03-17T01:49:46.531Z,0
2017-03-17T01:50:57.516Z,0
2017-03-17T01:52:08.497Z,0
2017-03-17T01:53:19.484Z,0
2017-03-17T01:54:30.473Z,0
2017-03-17T01:55:41.663Z,0
2017-03-17T01:56:52.662Z,0
2017-03-17T01:58:03.646Z,0
2017-03-17T01:59:14.646Z,0
2017-03-17T02:00:25.653Z,0
2017-03-17T02:01:36.842Z,0
2017-03-17T02:02:47.832Z,0
2017-03-17T02:03:59.017Z,0
2017-03-17T02:05:10.005Z,0
2017-03-17T02:06:21.039Z,0
2017-03-17T02:07:32.225Z,0
2017-03-17T02:08:43.224Z,0
2017-03-17T02:09:54.220Z,0
2017-03-17T02:11:05.206Z,0
2017-03-17T02:12:16.198Z,0
2017-03-17T02:13:27.192Z,0
2017-03-17T02:14:38.179Z,0
2017-03-17T02:15:49.370Z,0
2017-03-17T02:17:00.407Z,0
2017-03-17T02:18:11.386Z,0
2017-03-17T02:19:22.368Z,0
2017-03-17T02:20:33.359Z,0
2017-03-17T02:21:44.352Z,0
2017-03-17T02:22:55.742Z,0
2017-03-17T02:24:06.732Z,0
2017-03-17T02:25:17.927Z,0
2017-03-17T02:26:28.918Z,0
2017-03-17T02:27:40.159Z,0
2017-03-17T02:28:51.154Z,0
2017-03-17T02:30:02.341Z,0
2017-03-17T02:31:13.332Z,0
2017-03-17T02:32:24.521Z,0
2017-03-17T02:33:35.569Z,0
2017-03-17T02:34:46.550Z,0
2017-03-17T02:35:57.544Z,0
2017-03-17T02:37:08.539Z,0
2017-03-17T02:38:19.539Z,0
2017-03-17T02:39:30.537Z,0
2017-03-17T02:40:41.737Z,0
2017-03-17T02:41:52.730Z,0
2017-03-17T02:43:03.724Z,0
2017-03-17T02:44:14.776Z,0
2017-03-17T02:45:25.964Z,0
2017-03-17T02:46:36.954Z,0
2017-03-17T02:47:47.938Z,0
2017-03-17T02:48:58.935Z,0
2017-03-17T02:50:09.931Z,0
2017-03-17T02:51:21.124Z,0
2017-03-17T02:52:32.315Z,0
2017-03-17T02:53:43.322Z,0
2017-03-17T02:54:54.562Z,0
2017-03-17T02:56:05.551Z,0
2017-03-17T02:57:16.541Z,0
2017-03-17T02:58:27.538Z,0
2017-03-17T02:59:38.534Z,0
2017-03-17T03:00:49.513Z,0
2017-03-17T03:02:00.503Z,0
2017-03-17T03:03:11.493Z,0
2017-03-17T03:04:22.698Z,0
2017-03-17T03:05:33.741Z,0
2017-03-17T03:06:44.740Z,0
2017-03-17T03:07:55.939Z,0
2017-03-17T03:09:06.933Z,0
2017-03-17T03:10:17.923Z,0
2017-03-17T03:11:28.934Z,0
2017-03-17T03:12:39.932Z,0
2017-03-17T03:13:50.942Z,0
2017-03-17T03:15:01.937Z,0
2017-03-17T03:16:13.379Z,0
2017-03-17T03:17:24.565Z,0
2017-03-17T03:18:35.766Z,0
2017-03-17T03:19:46.962Z,0
2017-03-17T03:20:58.159Z,0
2017-03-17T03:22:09.146Z,0
2017-03-17T03:23:20.137Z,0
2017-03-17T03:24:31.129Z,0
2017-03-17T03:25:42.113Z,0
2017-03-17T03:26:53.113Z,0
2017-03-17T03:28:04.108Z,0
2017-03-17T03:29:15.100Z,0
2017-03-17T03:30:26.085Z,0
2017-03-17T03:31:37.068Z,0
2017-03-17T03:32:48.110Z,0
2017-03-17T03:33:59.111Z,0
2017-03-17T03:35:10.093Z,0
2017-03-17T03:36:21.087Z,0
2017-03-17T03:37:32.068Z,0
2017-03-17T03:38:43.069Z,0
2017-03-17T03:39:54.074Z,0
2017-03-17T03:41:05.262Z,0
2017-03-17T03:42:16.254Z,0
2017-03-17T03:43:27.714Z,0
2017-03-17T03:44:38.703Z,0
2017-03-17T03:45:49.696Z,0
2017-03-17T03:47:00.689Z,0
2017-03-17T03:48:11.697Z,0
2017-03-17T03:49:22.689Z,0
2017-03-17T03:50:33.687Z,0
2017-03-17T03:51:44.683Z,0
2017-03-17T03:52:55.886Z,0
2017-03-17T03:54:06.941Z,0
2017-03-17T03:55:17.938Z,0
2017-03-17T03:56:28.925Z,0
2017-03-17T03:57:39.922Z,0
2017-03-17T03:58:50.926Z,0
2017-03-17T04:00:02.125Z,0
2017-03-17T04:01:13.316Z,0
2017-03-17T04:02:24.302Z,0
2017-03-17T04:03:35.304Z,0
2017-03-17T04:04:46.555Z,0
2017-03-17T04:05:57.542Z,0
2017-03-17T04:07:08.532Z,0
2017-03-17T04:08:19.935Z,0
2017-03-17T04:09:30.924Z,0
2017-03-17T04:10:41.917Z,0
2017-03-17T04:11:52.915Z,0
2017-03-17T04:13:03.911Z,0
2017-03-17T04:14:14.901Z,0
2017-03-17T04:15:26.093Z,0
2017-03-17T04:16:37.089Z,0
2017-03-17T04:17:48.125Z,0
2017-03-17T04:18:59.143Z,0
2017-03-17T04:20:10.134Z,0
2017-03-17T04:21:21.381Z,0
2017-03-17T04:22:32.371Z,0
2017-03-17T04:23:43.577Z,0
2017-03-17T04:24:54.574Z,0
2017-03-17T04:26:05.566Z,0
2017-03-17T04:27:16.555Z,0
2017-03-17T04:28:27.551Z,0
2017-03-17T04:29:38.568Z,0
2017-03-17T04:30:49.760Z,0
2017-03-17T04:32:01.056Z,0
2017-03-17T04:33:12.056Z,0
2017-03-17T04:34:23.261Z,0
2017-03-17T04:35:34.455Z,0
2017-03-17T04:36:45.478Z,0
2017-03-17T04:37:56.676Z,0
2017-03-17T04:39:07.672Z,0
2017-03-17T04:40:18.670Z,0
2017-03-17T04:41:29.665Z,0
2017-03-17T04:42:40.704Z,0
2017-03-17T04:43:51.712Z,0
2017-03-17T04:45:02.712Z,0
2017-03-17T04:46:13.711Z,0
2017-03-17T04:47:24.705Z,0
2017-03-17T04:48:35.709Z,0
2017-03-17T04:49:46.711Z,0
2017-03-17T04:50:57.702Z,0
2017-03-17T04:52:08.891Z,0
2017-03-17T04:53:20.163Z,0
2017-03-17T04:54:31.153Z,0
2017-03-17T04:55:42.134Z,0
2017-03-17T04:56:53.122Z,0
2017-03-17T04:58:04.101Z,0
2017-03-17T04:59:15.299Z,0
2017-03-17T05:00:26.497Z,0
2017-03-17T05:01:37.691Z,0
2017-03-17T05:02:48.688Z,0
2017-03-17T05:03:59.929Z,0
2017-03-17T05:05:11.116Z,0
2017-03-17T05:06:22.109Z,0
2017-03-17T05:07:33.300Z,0
2017-03-17T05:08:44.288Z,0
2017-03-17T05:09:55.473Z,0
2017-03-17T05:11:06.462Z,0
2017-03-17T05:12:17.643Z,0
2017-03-17T05:13:28.638Z,0
2017-03-17T05:14:39.679Z,0
2017-03-17T05:15:50.672Z,0
2017-03-17T05:17:01.651Z,0
2017-03-17T05:18:12.650Z,0
2017-03-17T05:19:23.835Z,0
2017-03-17T05:20:34.822Z,0
2017-03-17T05:21:46.013Z,0
2017-03-17T05:22:57.227Z,0
2017-03-17T05:24:08.226Z,0
2017-03-17T05:25:19.270Z,0
2017-03-17T05:26:30.262Z,0
2017-03-17T05:27:41.457Z,0
2017-03-17T05:28:52.445Z,0
2017-03-17T05:30:03.446Z,0
2017-03-17T05:31:14.433Z,0
2017-03-17T05:32:25.419Z,5
2017-03-17T05:33:36.407Z,5
2017-03-17T05:34:47.600Z,5
2017-03-17T05:35:58.643Z,5
2017-03-17T05:37:09.833Z,5
2017-03-17T05:38:20.832Z,10
2017-03-17T05:39:31.824Z,10
2017-03-17T05:40:42.809Z,10
2017-03-17T05:41:53.791Z,10
2017-03-17T05:43:04.782Z,10
2017-03-17T05:44:15.782Z,10
2017-03-17T05:45:26.780Z,10
2017-03-17T05:46:37.817Z,10
2017-03-17T05:47:48.815Z,10
2017-03-17T05:48:59.802Z,10
2017-03-17T05:50:10.789Z,10
2017-03-17T05:51:21.778Z,10
2017-03-17T05:52:32.970Z,10
2017-03-17T05:53:43.967Z,10
2017-03-17T05:54:54.975Z,10
2017-03-17T05:56:05.970Z,10
2017-03-17T05:57:17.216Z,10
2017-03-17T05:58:28.201Z,10
2017-03-17T05:59:39.193Z,10
2017-03-17T06:00:50.177Z,10
2017-03-17T06:02:01.374Z,15
2017-03-17T06:03:12.370Z,15
2017-03-17T06:04:23.370Z,15
2017-03-17T06:05:34.365Z,15
2017-03-17T06:06:45.348Z,15
2017-03-17T06:07:56.393Z,15
2017-03-17T06:09:07.390Z,15
2017-03-17T06:10:18.392Z,15
2017-03-17T06:11:29.389Z,15
2017-03-17T06:12:40.392Z,20
2017-03-17T06:13:51.394Z,20
2017-03-17T06:15:02.394Z,15
2017-03-17T06:16:13.591Z,15
2017-03-17T06:17:24.770Z,15
2017-03-17T06:18:35.812Z,20
2017-03-17T06:19:46.835Z,20
2017-03-17T06:20:58.016Z,20
2017-03-17T06:22:09.406Z,25
2017-03-17T06:23:20.405Z,25
2017-03-17T06:24:31.590Z,20
2017-03-17T06:25:42.785Z,20
2017-03-17T06:26:53.768Z,20
2017-03-17T06:28:04.965Z,20
2017-03-17T06:29:15.957Z,25
2017-03-17T06:30:27.556Z,30
2017-03-17T06:31:38.543Z,30
2017-03-17T06:32:49.538Z,30
2017-03-17T06:34:00.529Z,30
2017-03-17T06:35:11.771Z,35
2017-03-17T06:36:22.753Z,35
2017-03-17T06:37:33.752Z,30
2017-03-17T06:38:44.755Z,30
2017-03-17T06:39:55.756Z,25
2017-03-17T06:41:06.938Z,20
2017-03-17T06:42:17.914Z,20
2017-03-17T06:43:28.924Z,20
2017-03-17T06:44:39.918Z,20
2017-03-17T06:45:50.958Z,25
2017-03-17T06:47:01.946Z,30
2017-03-17T06:48:12.940Z,30
2017-03-17T06:49:23.941Z,25
2017-03-17T06:50:34.935Z,20
2017-03-17T06:51:45.948Z,20
2017-03-17T06:52:56.940Z,20
2017-03-17T06:54:07.940Z,25
2017-03-17T06:55:19.133Z,30
2017-03-17T06:56:30.395Z,30
2017-03-17T06:57:41.405Z,25
2017-03-17T06:58:52.618Z,20
2017-03-17T07:00:04.013Z,20
2017-03-17T07:01:15.019Z,25
2017-03-17T07:02:26.005Z,30
2017-03-17T07:03:37.006Z,30
2017-03-17T07:04:48.033Z,35
2017-03-17T07:05:59.030Z,30
2017-03-17T07:07:10.280Z,25
2017-03-17T07:08:21.282Z,20
2017-03-17T07:09:32.265Z,20
2017-03-17T07:10:43.466Z,15
2017-03-17T07:11:54.458Z,20
2017-03-17T07:13:05.452Z,20
2017-03-17T07:14:16.446Z,20
2017-03-17T07:15:27.636Z,20
2017-03-17T07:16:38.632Z,20
2017-03-17T07:17:49.685Z,25
2017-03-17T07:19:00.676Z,40
2017-03-17T07:20:11.669Z,55
2017-03-17T07:21:22.652Z,60
2017-03-17T07:22:33.641Z,70
2017-03-17T07:23:44.874Z,80
2017-03-17T07:24:56.079Z,80
2017-03-17T07:26:07.279Z,70
2017-03-17T07:27:18.278Z,70
2017-03-17T07:28:29.536Z,60
2017-03-17T07:29:40.539Z,60
2017-03-17T07:30:51.532Z,70
2017-03-17T07:32:02.518Z,80
2017-03-17T07:33:13.513Z,80
2017-03-17T07:34:24.509Z,85
2017-03-17T07:35:35.704Z,70
2017-03-17T07:36:46.692Z,75
2017-03-17T07:37:57.697Z,95
2017-03-17T07:39:08.942Z,105
2017-03-17T07:40:19.940Z,115
2017-03-17T07:41:30.933Z,115
2017-03-17T07:42:41.921Z,120
2017-03-17T07:43:52.929Z,115
2017-03-17T07:45:03.924Z,120
2017-03-17T07:46:15.311Z,140
2017-03-17T07:47:26.302Z,165
2017-03-17T07:48:37.300Z,180
2017-03-17T07:49:48.550Z,200
2017-03-17T07:50:59.541Z,230
2017-03-17T07:52:10.525Z,240
2017-03-17T07:53:21.727Z,235
2017-03-17T07:54:32.724Z,240
2017-03-17T07:55:43.787Z,245
2017-03-17T07:56:54.784Z,275
2017-03-17T07:58:05.784Z,295
2017-03-17T07:59:16.780Z,300
2017-03-17T08:00:27.771Z,275
2017-03-17T08:01:38.768Z,250
2017-03-17T08:02:49.966Z,240
2017-03-17T08:04:00.967Z,235
2017-03-17T08:05:11.959Z,235
2017-03-17T08:06:23.195Z,255
2017-03-17T08:07:34.185Z,255
2017-03-17T08:08:45.184Z,260
2017-03-17T08:09:56.181Z,285
2017-03-17T08:11:07.374Z,310
2017-03-17T08:12:18.368Z,345
2017-03-17T08:13:29.356Z,385
2017-03-17T08:14:40.359Z,455
2017-03-17T08:15:51.341Z,450
2017-03-17T08:17:02.385Z,420
2017-03-17T08:18:13.381Z,420
2017-03-17T08:19:24.378Z,310
2017-03-17T08:20:35.370Z,305
2017-03-17T08:21:46.362Z,340
2017-03-17T08:22:57.355Z,390
2017-03-17T08:24:08.355Z,430
2017-03-17T08:25:19.342Z,450
2017-03-17T08:26:30.538Z,500
2017-03-17T08:27:42.041Z,495
2017-03-17T08:28:53.029Z,470
2017-03-17T08:30:04.048Z,430
2017-03-17T08:31:15.249Z,365
2017-03-17T08:32:26.244Z,320
2017-03-17T08:33:37.234Z,290
2017-03-17T08:34:48.232Z,300
2017-03-17T08:35:59.223Z,325
2017-03-17T08:37:10.213Z,345
2017-03-17T08:38:21.467Z,375
2017-03-17T08:39:32.463Z,390
2017-03-17T08:40:43.449Z,460
2017-03-17T08:41:54.438Z,550
2017-03-17T08:43:05.635Z,540
2017-03-17T08:44:16.830Z,580
2017-03-17T08:45:28.022Z,675
2017-03-17T08:46:39.222Z,340
2017-03-17T08:47:50.214Z,425
2017-03-17T08:49:01.468Z,1595
2017-03-17T08:50:12.450Z,3050
2017-03-17T08:51:23.443Z,1935
2017-03-17T08:52:34.436Z,2720
2017-03-17T08:53:45.434Z,2815
2017-03-17T08:54:56.636Z,2840
2017-03-17T08:56:07.660Z,2875
2017-03-17T08:57:18.657Z,2965
2017-03-17T08:58:29.664Z,3120
2017-03-17T08:59:41.127Z,2800
2017-03-17T09:00:52.126Z,3220
2017-03-17T09:02:03.136Z,3175
2017-03-17T09:03:14.344Z,3155
2017-03-17T09:04:25.554Z,1125
2017-03-17T09:05:36.766Z,1645
2017-03-17T09:06:47.761Z,730
2017-03-17T09:07:59.168Z,605
2017-03-17T09:09:10.180Z,2960
2017-03-17T09:10:21.445Z,645
2017-03-17T09:11:32.447Z,2790
2017-03-17T09:12:43.483Z,2495
2017-03-17T09:13:54.490Z,2730
2017-03-17T09:15:05.687Z,2905
2017-03-17T09:16:16.702Z,2860
2017-03-17T09:17:27.697Z,3065
2017-03-17T09:18:38.933Z,3100
2017-03-17T09:19:49.938Z,3025
2017-03-17T09:21:01.175Z,2985
2017-03-17T09:22:12.177Z,3060
2017-03-17T09:23:23.192Z,3140
2017-03-17T09:24:34.197Z,3055
2017-03-17T09:25:45.411Z,2880
2017-03-17T09:26:56.418Z,2855
2017-03-17T09:28:07.432Z,2695
2017-03-17T09:29:18.655Z,2640
2017-03-17T09:30:29.664Z,2735
2017-03-17T09:31:40.716Z,2830
2017-03-17T09:32:51.939Z,2890
2017-03-17T09:34:02.958Z,2945
2017-03-17T09:35:14.169Z,2880
2017-03-17T09:36:25.176Z,2855
2017-03-17T09:37:36.192Z,2940
2017-03-17T09:38:47.207Z,2930
2017-03-17T09:39:58.215Z,3020
2017-03-17T09:41:09.431Z,3000
2017-03-17T09:42:20.898Z,2860
2017-03-17T09:43:31.907Z,2930
2017-03-17T09:44:42.920Z,2925
2017-03-17T09:45:54.137Z,3010
2017-03-17T09:47:05.145Z,1380
2017-03-17T09:48:16.150Z,2110
2017-03-17T09:49:27.160Z,1605
2017-03-17T09:50:38.374Z,1315
2017-03-17T09:51:49.586Z,745
2017-03-17T09:53:00.849Z,1000
2017-03-17T09:54:11.861Z,1475
2017-03-17T09:55:22.867Z,1080
2017-03-17T09:56:33.869Z,2975
2017-03-17T09:57:44.874Z,3090
2017-03-17T09:58:55.930Z,3460
2017-03-17T10:00:07.132Z,1205
2017-03-17T10:01:18.160Z,1310
2017-03-17T10:02:29.169Z,1410
2017-03-17T10:03:40.177Z,1320
2017-03-17T10:04:51.421Z,815
2017-03-17T10:06:02.624Z,650
2017-03-17T10:07:13.831Z,755
2017-03-17T10:08:25.043Z,875
2017-03-17T10:09:36.302Z,1115
2017-03-17T10:10:47.509Z,805
2017-03-17T10:11:58.505Z,1030
2017-03-17T10:13:09.709Z,1225
2017-03-17T10:14:20.715Z,890
2017-03-17T10:15:32.118Z,915
2017-03-17T10:16:43.347Z,910
2017-03-17T10:17:54.345Z,1075
2017-03-17T10:19:05.355Z,860
2017-03-17T10:20:16.661Z,1205
2017-03-17T10:21:27.677Z,1155
2017-03-17T10:22:38.679Z,1360
2017-03-17T10:23:49.691Z,1490
2017-03-17T10:25:00.689Z,1965
2017-03-17T10:26:11.691Z,2130
2017-03-17T10:27:22.691Z,2045
2017-03-17T10:28:33.697Z,1670
2017-03-17T10:29:44.696Z,1255
2017-03-17T10:30:55.946Z,1060
2017-03-17T10:32:06.955Z,870
2017-03-17T10:33:17.956Z,760
2017-03-17T10:34:28.952Z,685
2017-03-17T10:35:39.960Z,605
2017-03-17T10:36:50.965Z,560
2017-03-17T10:38:02.166Z,520
2017-03-17T10:39:13.373Z,475
2017-03-17T10:40:24.372Z,465
2017-03-17T10:41:35.613Z,455
2017-03-17T10:42:46.609Z,435
2017-03-17T10:43:57.614Z,410
2017-03-17T10:45:08.625Z,380
2017-03-17T10:46:19.822Z,375
2017-03-17T10:47:31.029Z,370
2017-03-17T10:48:42.026Z,365
2017-03-17T10:49:53.027Z,365
2017-03-17T10:51:04.222Z,370
2017-03-17T10:52:15.227Z,375
2017-03-17T10:53:26.232Z,375
2017-03-17T10:54:37.231Z,360
2017-03-17T10:55:48.425Z,355
2017-03-17T10:56:59.434Z,345
2017-03-17T10:58:10.484Z,335
2017-03-17T10:59:21.707Z,315
2017-03-17T11:00:32.699Z,305
2017-03-17T11:01:43.935Z,295
2017-03-17T11:02:54.931Z,300
2017-03-17T11:04:05.952Z,300
2017-03-17T11:05:16.948Z,305
2017-03-17T11:06:27.946Z,305
2017-03-17T11:07:38.942Z,305
2017-03-17T11:08:50.234Z,305
2017-03-17T11:10:01.229Z,305
2017-03-17T11:11:12.426Z,300
2017-03-17T11:12:23.425Z,295
2017-03-17T11:13:34.425Z,295
2017-03-17T11:14:45.418Z,295
2017-03-17T11:15:56.410Z,295
2017-03-17T11:17:07.400Z,300
2017-03-17T11:18:18.603Z,305
2017-03-17T11:19:29.853Z,315
2017-03-17T11:20:41.048Z,315
2017-03-17T11:21:52.070Z,310
2017-03-17T11:23:03.064Z,300
2017-03-17T11:24:14.072Z,285
2017-03-17T11:25:25.062Z,265
2017-03-17T11:26:36.058Z,255
2017-03-17T11:27:47.051Z,255
2017-03-17T11:28:58.064Z,260
2017-03-17T11:30:09.116Z,260
2017-03-17T11:31:20.111Z,270
2017-03-17T11:32:31.112Z,280
2017-03-17T11:33:42.106Z,290
2017-03-17T11:34:53.100Z,265
2017-03-17T11:36:04.292Z,255
2017-03-17T11:37:15.493Z,245
2017-03-17T11:38:26.499Z,235
2017-03-17T11:39:37.483Z,235
2017-03-17T11:40:48.546Z,265
2017-03-17T11:41:59.948Z,290
2017-03-17T11:43:10.951Z,315
2017-03-17T11:44:21.954Z,330
2017-03-17T11:45:33.146Z,325
2017-03-17T11:46:44.152Z,315
2017-03-17T11:47:55.143Z,305
2017-03-17T11:49:06.146Z,290
2017-03-17T11:50:17.170Z,285
2017-03-17T11:51:28.213Z,285
2017-03-17T11:52:39.211Z,285
2017-03-17T11:53:50.207Z,305
2017-03-17T11:55:01.206Z,335
2017-03-17T11:56:12.193Z,355
2017-03-17T11:57:23.182Z,385
2017-03-17T11:58:34.174Z,415
2017-03-17T11:59:45.176Z,435
2017-03-17T12:00:56.184Z,415
2017-03-17T12:02:07.225Z,390
2017-03-17T12:03:18.222Z,370
2017-03-17T12:04:29.634Z,365
2017-03-17T12:05:40.629Z,355
2017-03-17T12:06:51.616Z,345
2017-03-17T12:08:02.620Z,335
2017-03-17T12:09:13.624Z,340
2017-03-17T12:10:24.829Z,350
2017-03-17T12:11:35.817Z,355
2017-03-17T12:12:46.873Z,360
2017-03-17T12:13:58.079Z,360
2017-03-17T12:15:09.281Z,355
2017-03-17T12:16:20.302Z,335
2017-03-17T12:17:31.495Z,325
2017-03-17T12:18:42.485Z,315
2017-03-17T12:19:53.474Z,320
2017-03-17T12:21:04.457Z,325
2017-03-17T12:22:15.460Z,335
2017-03-17T12:23:26.705Z,330
2017-03-17T12:24:37.712Z,335
2017-03-17T12:25:48.701Z,340
2017-03-17T12:26:59.695Z,340
2017-03-17T12:28:10.699Z,350
2017-03-17T12:29:21.720Z,360
2017-03-17T12:30:32.714Z,375
2017-03-17T12:31:43.923Z,370
2017-03-17T12:32:54.916Z,370
2017-03-17T12:34:05.960Z,380
2017-03-17T12:35:16.945Z,360
2017-03-17T12:36:28.145Z,370
2017-03-17T12:37:39.132Z,445
2017-03-17T12:38:50.121Z,525
2017-03-17T12:40:01.327Z,565
2017-03-17T12:41:12.317Z,590
2017-03-17T12:42:23.517Z,550
2017-03-17T12:43:34.517Z,510
2017-03-17T12:44:45.561Z,490
2017-03-17T12:45:56.751Z,475
2017-03-17T12:47:07.741Z,470
2017-03-17T12:48:18.736Z,420
2017-03-17T12:49:29.946Z,370
2017-03-17T12:50:41.347Z,325
2017-03-17T12:51:52.543Z,295
2017-03-17T12:53:03.535Z,280
2017-03-17T12:54:14.532Z,270
2017-03-17T12:55:25.583Z,265
2017-03-17T12:56:36.779Z,270
2017-03-17T12:57:47.773Z,270
2017-03-17T12:58:58.776Z,280
2017-03-17T13:00:09.772Z,280
2017-03-17T13:01:20.759Z,290
2017-03-17T13:02:31.745Z,305
2017-03-17T13:03:42.776Z,315
2017-03-17T13:04:53.773Z,310
2017-03-17T13:06:04.775Z,300
2017-03-17T13:07:15.774Z,330
2017-03-17T13:08:26.773Z,385
2017-03-17T13:09:37.765Z,445
2017-03-17T13:10:48.757Z,495
2017-03-17T13:12:00.002Z,495
2017-03-17T13:13:11.010Z,440
2017-03-17T13:14:22.016Z,410
2017-03-17T13:15:33.012Z,405
2017-03-17T13:16:44.006Z,405
2017-03-17T13:17:55.011Z,395
2017-03-17T13:19:06.004Z,395
2017-03-17T13:20:17.000Z,405
2017-03-17T13:21:28.193Z,410
2017-03-17T13:22:39.442Z,405
2017-03-17T13:23:50.447Z,370
2017-03-17T13:25:01.853Z,355
2017-03-17T13:26:13.042Z,350
2017-03-17T13:27:24.235Z,330
2017-03-17T13:28:35.239Z,280
2017-03-17T13:29:46.227Z,220
2017-03-17T13:30:57.257Z,180
2017-03-17T13:32:08.257Z,180
2017-03-17T13:33:19.313Z,195
2017-03-17T13:34:30.304Z,200
2017-03-17T13:35:41.300Z,240
2017-03-17T13:36:52.293Z,290
2017-03-17T13:38:03.303Z,340
2017-03-17T13:39:14.509Z,380
2017-03-17T13:40:25.510Z,420
2017-03-17T13:41:36.500Z,440
2017-03-17T13:42:47.504Z,440
2017-03-17T13:43:58.952Z,430
2017-03-17T13:45:09.947Z,415
2017-03-17T13:46:20.959Z,415
2017-03-17T13:47:31.955Z,435
2017-03-17T13:48:43.160Z,455
2017-03-17T13:49:54.175Z,445
2017-03-17T13:51:05.200Z,420
2017-03-17T13:52:16.194Z,405
2017-03-17T13:53:27.190Z,380
2017-03-17T13:54:38.431Z,350
2017-03-17T13:55:49.636Z,325
2017-03-17T13:57:00.631Z,320
2017-03-17T13:58:11.642Z,320
2017-03-17T13:59:22.634Z,295
2017-03-17T14:00:33.629Z,270
2017-03-17T14:01:44.610Z,285
2017-03-17T14:02:55.607Z,300
2017-03-17T14:04:06.605Z,315
2017-03-17T14:05:17.644Z,325
2017-03-17T14:06:28.635Z,325
2017-03-17T14:07:39.631Z,315
2017-03-17T14:08:51.044Z,325
2017-03-17T14:10:02.053Z,370
2017-03-17T14:11:13.042Z,395
2017-03-17T14:12:24.037Z,455
2017-03-17T14:13:35.233Z,420
2017-03-17T14:14:46.230Z,500
2017-03-17T14:15:57.679Z,520
2017-03-17T14:17:08.677Z,505
2017-03-17T14:18:19.691Z,490
2017-03-17T14:19:30.692Z,475
2017-03-17T14:20:41.889Z,450
2017-03-17T14:21:52.877Z,440
2017-03-17T14:23:03.870Z,380
2017-03-17T14:24:15.066Z,295
2017-03-17T14:25:26.086Z,275
2017-03-17T14:26:37.332Z,345
2017-03-17T14:27:48.338Z,265
2017-03-17T14:28:59.334Z,320
2017-03-17T14:30:10.323Z,265
2017-03-17T14:31:21.529Z,360
2017-03-17T14:32:32.724Z,365
2017-03-17T14:33:43.715Z,305
2017-03-17T14:34:54.710Z,340
2017-03-17T14:36:05.699Z,335
2017-03-17T14:37:16.938Z,315
2017-03-17T14:38:28.134Z,285
2017-03-17T14:39:39.131Z,285
2017-03-17T14:40:50.130Z,320
2017-03-17T14:42:01.122Z,360
2017-03-17T14:43:12.125Z,355
2017-03-17T14:44:23.125Z,355
2017-03-17T14:45:34.124Z,315
2017-03-17T14:46:45.123Z,295
2017-03-17T14:47:56.184Z,305
2017-03-17T14:49:07.381Z,310
2017-03-17T14:50:18.381Z,320
2017-03-17T14:51:29.367Z,325
2017-03-17T14:52:40.363Z,330
2017-03-17T14:53:51.567Z,335
2017-03-17T14:55:02.571Z,340
2017-03-17T14:56:13.566Z,335
2017-03-17T14:57:24.784Z,330
2017-03-17T14:58:36.039Z,320
2017-03-17T14:59:47.038Z,325
2017-03-17T15:00:58.029Z,310
2017-03-17T15:02:09.035Z,310
2017-03-17T15:03:20.024Z,310
2017-03-17T15:04:31.030Z,295
2017-03-17T15:05:42.025Z,285
2017-03-17T15:06:53.240Z,275
2017-03-17T15:08:04.441Z,270
2017-03-17T15:09:15.711Z,265
2017-03-17T15:10:26.905Z,260
2017-03-17T15:11:37.904Z,260
2017-03-17T15:12:48.890Z,250
2017-03-17T15:13:59.889Z,250
2017-03-17T15:15:10.875Z,245
2017-03-17T15:16:22.079Z,240
2017-03-17T15:17:33.100Z,240
2017-03-17T15:18:44.094Z,240
2017-03-17T15:19:55.138Z,235
2017-03-17T15:21:06.124Z,235
2017-03-17T15:22:17.118Z,230
2017-03-17T15:23:28.117Z,210
2017-03-17T15:24:39.114Z,200
2017-03-17T15:25:50.109Z,195
2017-03-17T15:27:01.109Z,195
2017-03-17T15:28:12.306Z,195
2017-03-17T15:29:23.313Z,195
2017-03-17T15:30:34.563Z,195
2017-03-17T15:31:45.565Z,195
2017-03-17T15:32:56.571Z,195
2017-03-17T15:34:07.768Z,190
2017-03-17T15:35:18.757Z,180
2017-03-17T15:36:30.158Z,175
2017-03-17T15:37:41.148Z,170
2017-03-17T15:38:52.140Z,170
2017-03-17T15:40:03.133Z,180
2017-03-17T15:41:14.375Z,180
2017-03-17T15:42:25.383Z,180
2017-03-17T15:43:36.588Z,180
2017-03-17T15:44:47.592Z,180
2017-03-17T15:45:58.577Z,190
2017-03-17T15:47:09.562Z,195
2017-03-17T15:48:20.559Z,195
2017-03-17T15:49:31.577Z,190
2017-03-17T15:50:42.565Z,185
2017-03-17T15:51:53.812Z,180
2017-03-17T15:53:04.811Z,170
2017-03-17T15:54:16.004Z,170
2017-03-17T15:55:27.011Z,160
2017-03-17T15:56:38.003Z,150
2017-03-17T15:57:48.992Z,140
2017-03-17T15:59:00.590Z,135
2017-03-17T16:00:11.590Z,125
2017-03-17T16:01:22.585Z,120
2017-03-17T16:02:33.622Z,120
2017-03-17T16:03:44.625Z,120
2017-03-17T16:04:56.019Z,125
2017-03-17T16:06:07.024Z,120
2017-03-17T16:07:18.018Z,120
2017-03-17T16:08:29.026Z,115
2017-03-17T16:09:40.228Z,115
2017-03-17T16:10:51.220Z,115
2017-03-17T16:12:02.210Z,115
2017-03-17T16:13:13.663Z,115
2017-03-17T16:14:24.862Z,110
2017-03-17T16:15:35.847Z,115
2017-03-17T16:16:46.837Z,125
2017-03-17T16:17:57.824Z,130
2017-03-17T16:19:09.022Z,135
2017-03-17T16:20:20.016Z,135
2017-03-17T16:21:31.005Z,130
2017-03-17T16:22:42.008Z,130
2017-03-17T16:23:53.056Z,125
2017-03-17T16:25:04.061Z,115
2017-03-17T16:26:15.056Z,115
2017-03-17T16:27:26.047Z,115
2017-03-17T16:28:37.051Z,115
2017-03-17T16:29:48.445Z,125
2017-03-17T16:30:59.433Z,125
2017-03-17T16:32:10.426Z,120
2017-03-17T16:33:21.841Z,125
2017-03-17T16:34:32.897Z,115
2017-03-17T16:35:43.899Z,110
2017-03-17T16:36:55.091Z,105
2017-03-17T16:38:06.298Z,100
2017-03-17T16:39:17.293Z,95
2017-03-17T16:40:28.304Z,95
2017-03-17T16:41:39.295Z,90
2017-03-17T16:42:50.333Z,85